createdAt,value
2019-04-29T00:01:53.993Z,0.40
2019-04-29T00:04:24.341Z,0.20
2019-04-29T00:06:54.210Z,0.10
2019-04-29T00:09:24.090Z,0.10
2019-04-29T00:11:53.876Z,0.15
2019-04-29T00:14:23.753Z,0.10
2019-04-29T00:16:55.274Z,0.20
2019-04-29T00:19:47.900Z,0.15
2019-04-29T00:22:18.227Z,0.30
2019-04-29T00:24:48.111Z,0.20
2019-04-29T00:27:17.909Z,0.28
2019-04-29T00:29:47.813Z,0.10
2019-04-29T00:32:19.776Z,0.10
2019-04-29T00:34:50.042Z,0.30
2019-04-29T00:37:37.673Z,0.20
2019-04-29T00:40:11.725Z,0.10
2019-04-29T00:42:43.228Z,0.20
2019-04-29T00:45:13.109Z,0.10
2019-04-29T00:47:42.910Z,0.20
2019-04-29T00:50:12.787Z,0.20
2019-04-29T00:52:42.738Z,0.20
2019-04-29T00:55:14.246Z,0.23
2019-04-29T00:57:44.117Z,0.17
2019-04-29T01:00:15.596Z,0.20
2019-04-29T01:02:45.475Z,0.10
2019-04-29T01:05:15.353Z,0.25
2019-04-29T01:07:45.155Z,0.30
2019-04-29T01:10:15.581Z,0.10
2019-04-29T01:12:45.516Z,0.40
2019-04-29T01:15:15.389Z,0.20
2019-04-29T01:17:46.987Z,0.30
2019-04-29T01:20:16.790Z,0.15
2019-04-29T01:22:46.584Z,0.35
2019-04-29T01:25:16.407Z,0.23
2019-04-29T01:27:50.725Z,0.25
2019-04-29T01:30:41.417Z,0.23
2019-04-29T01:33:11.293Z,0.20
2019-04-29T01:35:41.275Z,0.20
2019-04-29T01:38:11.070Z,0.20
2019-04-29T01:40:45.584Z,0.10
2019-04-29T01:43:15.450Z,0.20
2019-04-29T01:45:45.254Z,0.20
2019-04-29T01:48:15.050Z,0.30
2019-04-29T01:50:44.854Z,0.30
2019-04-29T01:53:14.730Z,0.40
2019-04-29T01:55:44.867Z,0.20
2019-04-29T01:58:14.737Z,0.30
2019-04-29T02:00:44.609Z,0.20
2019-04-29T02:03:17.150Z,0.45
2019-04-29T02:05:46.949Z,0.10
2019-04-29T02:08:16.782Z,0.25
2019-04-29T02:10:46.680Z,0.20
2019-04-29T02:13:16.682Z,0.10
2019-04-29T02:15:46.482Z,0.20
2019-04-29T02:18:16.364Z,0.40
2019-04-29T02:20:46.169Z,0.10
2019-04-29T02:23:17.619Z,0.30
2019-04-29T02:25:49.189Z,0.47
2019-04-29T02:28:18.981Z,0.40
2019-04-29T02:30:49.893Z,0.25
2019-04-29T02:33:19.690Z,0.20
2019-04-29T02:35:49.499Z,0.20
2019-04-29T02:38:38.960Z,0.40
2019-04-29T02:41:19.788Z,0.35
2019-04-29T02:43:51.288Z,0.30
2019-04-29T02:46:21.161Z,0.25
2019-04-29T02:48:51.028Z,0.30
2019-04-29T02:51:38.757Z,0.20
2019-04-29T02:54:08.640Z,0.25
2019-04-29T02:56:39.410Z,0.30
2019-04-29T02:59:11.018Z,0.33
2019-04-29T03:01:59.069Z,0.15
2019-04-29T03:04:30.568Z,0.33
2019-04-29T03:07:00.444Z,0.40
2019-04-29T03:09:31.945Z,0.20
2019-04-29T03:12:02.120Z,0.20
2019-04-29T03:14:32.104Z,0.30
2019-04-29T03:17:01.936Z,0.40
2019-04-29T03:19:33.380Z,0.23
2019-04-29T03:22:15.740Z,0.30
2019-04-29T03:24:45.549Z,0.23
2019-04-29T03:27:15.350Z,0.60
2019-04-29T03:29:47.819Z,0.40
2019-04-29T03:32:17.650Z,0.40
2019-04-29T03:34:47.630Z,0.50
2019-04-29T03:37:17.497Z,0.37
2019-04-29T03:39:47.314Z,0.30
2019-04-29T03:42:17.115Z,0.40
2019-04-29T03:44:47.080Z,0.30
2019-04-29T03:47:19.024Z,0.40
2019-04-29T03:49:48.298Z,0.25
2019-04-29T03:52:18.174Z,0.23
2019-04-29T03:54:48.049Z,0.40
2019-04-29T03:57:18.997Z,0.30
2019-04-29T03:59:48.814Z,0.30
2019-04-29T04:02:29.482Z,0.40
2019-04-29T04:05:10.224Z,0.30
2019-04-29T04:07:41.737Z,0.30
2019-04-29T04:10:11.609Z,0.50
2019-04-29T04:12:41.477Z,0.40
2019-04-29T04:15:11.434Z,0.45
2019-04-29T04:17:42.922Z,0.40
2019-04-29T04:20:13.099Z,0.50
2019-04-29T04:22:47.081Z,0.47
2019-04-29T04:25:18.012Z,0.55
2019-04-29T04:27:48.077Z,0.53
2019-04-29T04:30:18.962Z,0.50
2019-04-29T04:32:50.496Z,0.80
2019-04-29T04:35:20.622Z,0.60
2019-04-29T04:37:50.418Z,0.33
2019-04-29T04:40:21.862Z,1.10
2019-04-29T04:42:51.726Z,0.50
2019-04-29T04:45:21.536Z,0.78
2019-04-29T04:47:51.330Z,0.50
2019-04-29T04:50:21.490Z,0.60
2019-04-29T04:52:51.285Z,0.33
2019-04-29T04:55:22.736Z,0.62
2019-04-29T04:58:06.033Z,0.30
2019-04-29T05:00:37.306Z,0.20
2019-04-29T05:03:07.101Z,0.50
2019-04-29T05:05:36.926Z,0.40
2019-04-29T05:08:06.799Z,0.40
2019-04-29T05:10:36.606Z,0.20
2019-04-29T05:13:06.402Z,0.78
2019-04-29T05:15:36.285Z,0.40
2019-04-29T05:18:06.078Z,0.25
2019-04-29T05:20:35.954Z,0.60
2019-04-29T05:23:05.821Z,0.80
2019-04-29T05:25:35.662Z,0.78
2019-04-29T05:28:05.888Z,0.30
2019-04-29T05:30:35.685Z,0.57
2019-04-29T05:33:05.492Z,0.25
2019-04-29T05:35:40.664Z,0.53
2019-04-29T05:38:24.473Z,0.53
2019-04-29T05:40:56.893Z,0.30
2019-04-29T05:43:36.613Z,0.40
2019-04-29T05:46:11.103Z,0.40
2019-04-29T05:48:40.913Z,0.23
2019-04-29T05:51:15.021Z,0.30
2019-04-29T05:53:47.811Z,0.20
2019-04-29T05:56:18.037Z,0.20
2019-04-29T05:58:47.971Z,0.20
2019-04-29T06:01:19.465Z,0.10
2019-04-29T06:03:49.286Z,0.30
2019-04-29T06:06:19.098Z,0.75
2019-04-29T06:08:48.893Z,0.10
2019-04-29T06:11:18.784Z,0.30
2019-04-29T06:13:48.624Z,0.40
2019-04-29T06:16:20.979Z,0.15
2019-04-29T06:18:59.518Z,0.10
2019-04-29T06:21:22.409Z,0.20
2019-04-29T06:23:54.636Z,0.10
2019-04-29T06:26:23.636Z,0.00
2019-04-29T06:28:53.437Z,0.13
2019-04-29T06:31:23.256Z,0.10
2019-04-29T06:33:53.101Z,0.60
2019-04-29T06:36:22.897Z,0.20
2019-04-29T06:38:53.174Z,0.20
2019-04-29T06:41:23.373Z,0.20
2019-04-29T06:43:55.855Z,0.17
2019-04-29T06:46:36.729Z,0.20
2019-04-29T06:49:10.626Z,0.37
2019-04-29T06:51:37.945Z,0.47
2019-04-29T06:54:07.826Z,0.20
2019-04-29T06:56:37.621Z,0.70
2019-04-29T06:59:11.503Z,1.85
2019-04-29T07:01:38.925Z,0.30
2019-04-29T07:04:08.721Z,0.30
2019-04-29T07:06:38.540Z,0.20
2019-04-29T07:09:08.770Z,0.10
2019-04-29T07:11:38.661Z,0.28
2019-04-29T07:14:08.458Z,0.50
2019-04-29T07:16:39.609Z,0.10
2019-04-29T07:19:09.513Z,0.10
2019-04-29T07:21:41.865Z,0.20
2019-04-29T07:24:10.942Z,0.10
2019-04-29T07:26:40.737Z,0.15
2019-04-29T07:29:10.538Z,0.50
2019-04-29T07:31:40.338Z,0.20
2019-04-29T07:34:10.197Z,0.10
2019-04-29T07:36:40.015Z,0.30
2019-04-29T07:39:09.946Z,0.40
2019-04-29T07:41:39.831Z,0.20
2019-04-29T07:44:13.599Z,0.10
2019-04-29T07:46:56.314Z,0.20
2019-04-29T07:49:17.355Z,0.28
2019-04-29T07:51:46.780Z,0.20
2019-04-29T07:54:17.696Z,0.10
2019-04-29T07:56:47.841Z,0.10
2019-04-29T07:59:17.642Z,0.20
2019-04-29T08:01:47.483Z,0.62
2019-04-29T08:04:17.349Z,0.33
2019-04-29T08:06:47.147Z,0.23
2019-04-29T08:09:17.020Z,0.20
2019-04-29T08:11:46.954Z,0.20
2019-04-29T08:14:17.276Z,0.30
2019-04-29T08:16:47.137Z,0.23
2019-04-29T08:19:16.941Z,0.47
2019-04-29T08:21:59.400Z,0.20
2019-04-29T08:24:29.269Z,0.20
2019-04-29T08:26:59.141Z,0.20
2019-04-29T08:29:30.800Z,0.20
2019-04-29T08:32:02.513Z,0.40
2019-04-29T08:34:31.866Z,0.20
2019-04-29T08:37:02.157Z,0.20
2019-04-29T08:39:32.269Z,0.40
2019-04-29T08:42:08.826Z,0.30
2019-04-29T08:44:37.203Z,0.60
2019-04-29T08:47:11.382Z,0.20
2019-04-29T08:49:41.209Z,0.42
2019-04-29T08:52:11.375Z,0.37
2019-04-29T08:54:41.275Z,0.20
2019-04-29T08:57:11.482Z,0.37
2019-04-29T08:59:41.286Z,0.30
2019-04-29T09:02:11.486Z,0.50
2019-04-29T09:04:52.792Z,0.37
2019-04-29T09:07:17.195Z,0.60
2019-04-29T09:09:44.338Z,0.42
2019-04-29T09:12:14.214Z,0.60
2019-04-29T09:14:44.050Z,0.80
2019-04-29T09:17:20.444Z,0.50
2019-04-29T09:19:45.375Z,0.70
2019-04-29T09:22:16.813Z,0.60
2019-04-29T09:24:49.611Z,0.57
2019-04-29T09:27:20.496Z,0.82
2019-04-29T09:29:54.258Z,0.60
2019-04-29T09:32:22.059Z,0.65
2019-04-29T09:34:55.499Z,0.60
2019-04-29T09:37:24.565Z,0.40
2019-04-29T09:39:54.560Z,0.30
2019-04-29T09:42:38.121Z,0.70
2019-04-29T09:47:38.965Z,0.40
2019-04-29T09:50:08.908Z,0.50
2019-04-29T09:52:38.816Z,0.70
2019-04-29T09:55:09.711Z,0.85
2019-04-29T09:57:39.727Z,1.90
2019-04-29T10:00:11.744Z,0.50
2019-04-29T10:02:43.693Z,0.40
2019-04-29T10:05:30.212Z,0.50
2019-04-29T10:08:00.242Z,0.40
2019-04-29T10:10:30.181Z,1.05
2019-04-29T10:13:00.361Z,0.50
2019-04-29T10:15:37.729Z,0.93
2019-04-29T10:18:15.411Z,1.10
2019-04-29T10:20:50.176Z,1.02
2019-04-29T10:23:21.124Z,1.10
2019-04-29T10:25:51.079Z,1.00
2019-04-29T10:28:20.966Z,1.00
2019-04-29T10:30:50.916Z,1.00
2019-04-29T10:33:23.088Z,1.00
2019-04-29T10:35:52.768Z,1.80
2019-04-29T10:38:22.660Z,1.00
2019-04-29T10:41:04.458Z,1.12
2019-04-29T10:43:38.930Z,1.00
2019-04-29T10:46:25.794Z,1.00
2019-04-29T10:48:59.198Z,1.40
2019-04-29T10:51:28.959Z,1.15
2019-04-29T10:53:58.907Z,1.40
2019-04-29T10:56:29.221Z,1.50
2019-04-29T10:58:59.236Z,1.30
2019-04-29T11:02:05.072Z,1.52
2019-04-29T11:04:36.277Z,1.35
2019-04-29T11:07:13.869Z,2.15
2019-04-29T11:09:42.069Z,4.37
2019-04-29T11:12:13.674Z,11.30
2019-04-29T11:14:43.991Z,12.18
2019-04-29T11:17:16.485Z,5.97
2019-04-29T11:19:45.543Z,12.20
2019-04-29T11:22:17.071Z,11.05
2019-04-29T11:24:51.654Z,17.32
2019-04-29T11:27:35.233Z,15.40
2019-04-29T11:32:41.297Z,6.00
2019-04-29T11:35:18.976Z,4.28
2019-04-29T11:37:49.956Z,10.13
2019-04-29T11:40:26.056Z,9.70
2019-04-29T11:42:52.317Z,11.20
2019-04-29T11:45:22.201Z,8.35
2019-04-29T11:47:52.082Z,6.03
2019-04-29T11:50:35.553Z,6.83
2019-04-29T11:55:59.934Z,7.05
2019-04-29T11:58:37.235Z,5.85
2019-04-29T12:01:12.069Z,11.57
2019-04-29T12:03:46.247Z,4.28
2019-04-29T12:06:20.265Z,7.58
2019-04-29T12:08:48.260Z,7.50
2019-04-29T12:11:19.618Z,9.73
2019-04-29T12:14:09.053Z,10.50
2019-04-29T12:16:40.504Z,5.05
2019-04-29T12:19:11.980Z,2.27
2019-04-29T12:21:43.362Z,3.08
2019-04-29T12:24:13.652Z,1.57
2019-04-29T12:26:44.640Z,1.57
2019-04-29T12:29:18.287Z,2.95
2019-04-29T12:31:56.655Z,2.33
2019-04-29T12:34:39.928Z,4.55
2019-04-29T12:37:29.811Z,4.42
2019-04-29T12:40:17.407Z,7.12
2019-04-29T12:43:05.355Z,8.20
2019-04-29T12:45:37.041Z,3.75
2019-04-29T12:48:07.199Z,3.62
2019-04-29T12:50:37.113Z,5.55
2019-04-29T12:53:06.926Z,1.95
2019-04-29T12:55:45.052Z,7.70
2019-04-29T12:58:11.835Z,6.30
2019-04-29T13:00:48.105Z,4.42
2019-04-29T13:03:18.292Z,2.67
2019-04-29T13:05:58.460Z,8.50
2019-04-29T13:08:32.851Z,7.00
2019-04-29T13:11:04.441Z,5.75
2019-04-29T13:13:34.630Z,3.85
2019-04-29T13:16:24.643Z,6.72
2019-04-29T13:19:13.380Z,4.85
2019-04-29T13:21:42.950Z,4.67
2019-04-29T13:24:22.529Z,3.85
2019-04-29T13:26:44.696Z,6.10
2019-04-29T13:29:26.381Z,4.05
2019-04-29T13:31:46.109Z,3.52
2019-04-29T13:34:24.029Z,5.40
2019-04-29T13:37:06.049Z,3.65
2019-04-29T13:39:37.864Z,4.37
2019-04-29T13:41:57.563Z,3.05
2019-04-29T13:44:24.155Z,4.45
2019-04-29T13:46:55.729Z,5.15
2019-04-29T13:49:39.555Z,5.00
2019-04-29T13:52:09.833Z,4.58
2019-04-29T13:54:42.415Z,5.40
2019-04-29T13:57:15.814Z,3.77
2019-04-29T13:59:53.895Z,2.83
2019-04-29T14:02:37.463Z,4.05
2019-04-29T14:07:39.609Z,4.60
2019-04-29T14:10:15.026Z,3.90
2019-04-29T14:12:48.391Z,4.67
2019-04-29T14:15:14.510Z,3.98
2019-04-29T14:17:44.575Z,4.25
2019-04-29T14:20:15.866Z,4.30
2019-04-29T14:22:45.956Z,4.15
2019-04-29T14:25:16.126Z,3.40
2019-04-29T14:27:46.015Z,3.95
2019-04-29T14:30:21.014Z,4.28
2019-04-29T14:32:52.374Z,2.37
2019-04-29T14:35:26.806Z,2.95
2019-04-29T14:38:04.580Z,2.05
2019-04-29T14:40:28.105Z,2.95
2019-04-29T14:43:02.961Z,2.47
2019-04-29T14:45:51.863Z,2.95
2019-04-29T14:48:42.100Z,3.92
2019-04-29T14:51:04.293Z,2.42
2019-04-29T14:53:34.321Z,3.20
2019-04-29T14:56:04.149Z,3.30
2019-04-29T14:58:34.091Z,2.85
2019-04-29T15:01:13.098Z,2.90
2019-04-29T15:03:57.242Z,3.10
2019-04-29T15:06:28.931Z,3.35
2019-04-29T15:08:59.320Z,3.00
2019-04-29T15:11:33.641Z,3.77
2019-04-29T15:14:23.884Z,2.37
2019-04-29T15:16:54.861Z,2.10
2019-04-29T15:19:32.333Z,3.55
2019-04-29T15:22:04.044Z,2.10
2019-04-29T15:24:34.189Z,2.58
2019-04-29T15:27:04.675Z,2.95
2019-04-29T15:29:34.587Z,2.45
2019-04-29T15:32:04.870Z,2.17
2019-04-29T15:34:34.750Z,2.52
2019-04-29T15:37:04.625Z,2.60
2019-04-29T15:39:34.425Z,2.25
2019-04-29T15:42:06.962Z,3.70
2019-04-29T15:44:35.969Z,2.95
2019-04-29T15:47:05.904Z,2.35
2019-04-29T15:49:35.770Z,2.30
2019-04-29T15:52:05.583Z,2.65
2019-04-29T15:54:35.389Z,3.47
2019-04-29T15:57:09.270Z,3.02
2019-04-29T15:59:48.493Z,2.58
2019-04-29T16:02:08.798Z,2.15
2019-04-29T16:04:53.020Z,2.42
2019-04-29T16:07:46.607Z,2.52
2019-04-29T16:10:31.665Z,2.22
2019-04-29T16:13:09.373Z,2.27
2019-04-29T16:15:39.481Z,2.30
2019-04-29T16:18:10.697Z,2.02
2019-04-29T16:20:40.958Z,1.80
2019-04-29T16:23:10.959Z,2.45
2019-04-29T16:25:41.177Z,3.22
2019-04-29T16:28:12.564Z,3.10
2019-04-29T16:30:42.550Z,2.83
2019-04-29T16:33:14.176Z,1.70
2019-04-29T16:35:43.933Z,2.05
2019-04-29T16:38:14.364Z,2.47
2019-04-29T16:40:45.954Z,2.65
2019-04-29T16:43:27.525Z,2.42
2019-04-29T16:46:14.443Z,2.30
2019-04-29T16:48:44.427Z,2.45
2019-04-29T16:51:16.713Z,2.25
2019-04-29T16:53:45.887Z,1.98
2019-04-29T16:56:16.533Z,2.00
2019-04-29T16:58:46.634Z,1.60
2019-04-29T17:01:16.638Z,1.40
2019-04-29T17:03:47.743Z,2.35
2019-04-29T17:06:17.979Z,1.72
2019-04-29T17:09:03.361Z,1.95
2019-04-29T17:11:35.308Z,1.75
2019-04-29T17:14:10.071Z,1.60
2019-04-29T17:16:36.676Z,1.92
2019-04-29T17:19:06.486Z,1.65
2019-04-29T17:21:36.430Z,2.30
2019-04-29T17:24:06.310Z,1.47
2019-04-29T17:26:54.456Z,2.02
2019-04-29T17:29:49.102Z,2.33
2019-04-29T17:32:42.626Z,2.50
2019-04-29T17:35:02.698Z,3.10
2019-04-29T17:37:34.237Z,2.95
2019-04-29T17:40:06.711Z,2.17
2019-04-29T17:42:38.212Z,2.30
2019-04-29T17:45:12.429Z,2.90
2019-04-29T17:47:47.192Z,2.75
2019-04-29T17:50:29.896Z,1.98
2019-04-29T17:52:52.948Z,2.50
2019-04-29T17:55:25.026Z,2.60
2019-04-29T17:57:59.438Z,3.35
2019-04-29T18:00:55.531Z,2.65
2019-04-29T18:03:20.407Z,2.92
2019-04-29T18:05:55.244Z,3.50
2019-04-29T18:08:40.497Z,2.33
2019-04-29T18:11:10.801Z,2.67
2019-04-29T18:13:40.832Z,2.30
2019-04-29T18:16:17.970Z,2.72
2019-04-29T18:19:02.043Z,2.80
2019-04-29T18:21:50.877Z,2.15
2019-04-29T18:24:37.362Z,2.60
2019-04-29T18:27:07.045Z,3.55
